createdAt,value
2018-12-08T00:00:39.711Z,68.89
2018-12-08T00:03:08.473Z,68.71
2018-12-08T00:05:37.207Z,69.75
2018-12-08T00:08:05.939Z,69.89
2018-12-08T00:10:34.631Z,68.05
2018-12-08T00:13:03.239Z,68.44
2018-12-08T00:15:32.075Z,68.75
2018-12-08T00:18:00.733Z,67.44
2018-12-08T00:20:29.439Z,66.87
2018-12-08T00:22:58.283Z,64.69
2018-12-08T00:25:26.911Z,65.28
2018-12-08T00:27:55.944Z,65.04
2018-12-08T00:31:33.500Z,66.03
2018-12-08T00:34:02.221Z,65.62
2018-12-08T00:36:30.855Z,65.86
2018-12-08T00:38:59.615Z,65.91
2018-12-08T00:41:28.235Z,66.10
2018-12-08T00:43:57.023Z,65.92
2018-12-08T00:46:25.972Z,66.07
2018-12-08T00:48:54.615Z,65.78
2018-12-08T00:51:23.284Z,65.74
2018-12-08T00:53:51.935Z,65.71
2018-12-08T00:56:20.779Z,65.77
2018-12-08T00:58:49.687Z,66.49
2018-12-08T01:01:18.336Z,66.22
2018-12-08T01:03:47.140Z,67.25
2018-12-08T01:06:15.848Z,66.46
2018-12-08T01:08:44.517Z,66.80
2018-12-08T01:11:13.148Z,67.23
2018-12-08T01:13:41.768Z,67.06
2018-12-08T01:16:10.511Z,68.25
2018-12-08T01:18:39.329Z,68.44
2018-12-08T01:21:07.960Z,68.30
2018-12-08T01:23:36.603Z,68.79
2018-12-08T01:26:05.324Z,68.45
2018-12-08T01:28:33.956Z,67.89
2018-12-08T01:31:02.795Z,68.11
2018-12-08T01:33:31.502Z,68.40
2018-12-08T01:36:00.358Z,68.25
2018-12-08T01:38:29.052Z,68.41
2018-12-08T01:40:57.653Z,69.46
2018-12-08T01:43:26.396Z,69.53
2018-12-08T01:45:55.055Z,68.33
2018-12-08T01:48:23.747Z,69.69
2018-12-08T01:50:52.414Z,68.55
2018-12-08T01:53:21.096Z,69.09
2018-12-08T01:55:49.793Z,70.10
2018-12-08T01:58:18.496Z,69.35
2018-12-08T02:00:47.395Z,69.42
2018-12-08T02:03:16.136Z,69.52
2018-12-08T02:05:44.858Z,68.94
2018-12-08T02:08:13.523Z,69.96
2018-12-08T02:10:42.219Z,68.78
2018-12-08T02:13:10.931Z,69.71
2018-12-08T02:15:39.579Z,69.93
2018-12-08T02:18:08.254Z,69.97
2018-12-08T02:20:37.006Z,69.56
2018-12-08T02:23:05.758Z,68.70
2018-12-08T02:25:34.501Z,69.32
2018-12-08T02:28:03.339Z,68.95
2018-12-08T02:30:32.018Z,69.17
2018-12-08T02:33:00.700Z,69.65
2018-12-08T02:35:29.482Z,70.00
2018-12-08T02:37:58.290Z,69.34
2018-12-08T02:40:27.042Z,70.20
2018-12-08T02:42:55.808Z,70.46
2018-12-08T02:45:24.446Z,70.82
2018-12-08T02:47:53.071Z,70.51
2018-12-08T02:50:21.912Z,71.54
2018-12-08T02:52:50.685Z,72.20
2018-12-08T02:55:19.591Z,71.86
2018-12-08T02:57:48.627Z,73.25
2018-12-08T03:00:17.328Z,72.69
2018-12-08T03:02:46.117Z,72.90
2018-12-08T03:05:14.903Z,72.93
2018-12-08T03:07:43.755Z,72.73
2018-12-08T03:10:12.511Z,72.23
2018-12-08T03:12:41.207Z,72.91
2018-12-08T03:15:10.210Z,71.59
2018-12-08T03:17:39.471Z,72.21
2018-12-08T03:20:08.521Z,72.44
2018-12-08T03:22:37.203Z,71.80
2018-12-08T03:25:06.408Z,72.27
2018-12-08T03:27:35.012Z,72.49
2018-12-08T03:30:03.811Z,72.60
2018-12-08T03:32:32.449Z,71.98
2018-12-08T03:35:01.398Z,72.40
2018-12-08T03:37:30.013Z,72.61
2018-12-08T03:39:58.709Z,72.67
2018-12-08T03:42:27.877Z,71.63
2018-12-08T03:44:56.989Z,72.35
2018-12-08T03:47:25.720Z,71.80
2018-12-08T03:49:54.332Z,71.66
2018-12-08T03:52:22.926Z,70.92
2018-12-08T03:54:51.667Z,70.38
2018-12-08T03:57:20.251Z,69.50
2018-12-08T03:59:48.929Z,70.55
2018-12-08T04:02:17.628Z,69.79
2018-12-08T04:04:46.466Z,70.12
2018-12-08T04:07:15.124Z,68.85
2018-12-08T04:09:43.789Z,70.38
2018-12-08T04:12:12.571Z,69.39
2018-12-08T04:14:41.439Z,69.69
2018-12-08T04:17:10.198Z,69.32
2018-12-08T04:19:38.964Z,68.80
2018-12-08T04:22:07.670Z,69.67
2018-12-08T04:24:36.309Z,69.46
2018-12-08T04:27:04.890Z,69.49
2018-12-08T04:29:33.593Z,69.69
2018-12-08T04:32:02.343Z,68.59
2018-12-08T04:34:31.040Z,69.40
2018-12-08T04:36:59.816Z,69.76
2018-12-08T04:39:28.729Z,70.21
2018-12-08T04:41:57.466Z,69.18
2018-12-08T04:44:26.599Z,69.10
2018-12-08T04:46:55.527Z,70.04
2018-12-08T04:49:24.409Z,69.47
2018-12-08T04:51:53.114Z,70.26
2018-12-08T04:54:21.760Z,70.47
2018-12-08T04:56:50.547Z,70.71
2018-12-08T04:59:19.289Z,71.21
2018-12-08T05:01:47.935Z,70.56
2018-12-08T05:04:16.820Z,70.19
2018-12-08T05:06:45.599Z,70.26
2018-12-08T05:09:14.391Z,70.40
2018-12-08T05:11:43.081Z,70.26
2018-12-08T05:14:11.716Z,69.92
2018-12-08T05:16:40.496Z,70.63
2018-12-08T05:19:09.290Z,70.21
2018-12-08T05:21:38.080Z,71.08
2018-12-08T05:24:07.025Z,71.00
2018-12-08T05:26:35.823Z,72.00
2018-12-08T05:29:04.646Z,71.56
2018-12-08T05:31:33.355Z,72.44
2018-12-08T05:34:02.151Z,72.54
2018-12-08T05:36:30.901Z,72.47
2018-12-08T05:38:59.642Z,73.82
2018-12-08T05:41:28.301Z,74.00
2018-12-08T05:43:56.931Z,74.67
2018-12-08T05:46:25.648Z,74.02
2018-12-08T05:48:54.670Z,73.86
2018-12-08T05:51:23.364Z,74.60
2018-12-08T05:53:52.048Z,74.68
2018-12-08T05:56:20.707Z,74.33
2018-12-08T05:58:49.323Z,74.44
2018-12-08T06:01:18.168Z,75.13
2018-12-08T06:03:46.770Z,74.49
2018-12-08T06:06:15.504Z,75.22
2018-12-08T06:08:44.228Z,74.30
2018-12-08T06:11:12.809Z,74.78
2018-12-08T06:13:41.531Z,75.17
2018-12-08T06:16:10.124Z,76.44
2018-12-08T06:18:38.776Z,75.92
2018-12-08T06:21:07.435Z,76.32
2018-12-08T06:23:36.224Z,76.47
2018-12-08T06:26:10.933Z,77.12
2018-12-08T06:28:40.969Z,76.26
2018-12-08T06:31:09.685Z,76.17
2018-12-08T06:33:38.285Z,76.27
2018-12-08T06:36:06.960Z,76.28
2018-12-08T06:38:35.571Z,75.64
2018-12-08T06:41:04.309Z,76.73
2018-12-08T06:43:32.943Z,76.69
2018-12-08T06:46:01.703Z,75.85
2018-12-08T06:48:30.522Z,76.86
2018-12-08T06:50:59.111Z,76.25
2018-12-08T06:53:27.904Z,75.88
2018-12-08T06:55:56.541Z,75.52
2018-12-08T06:58:25.149Z,76.08
2018-12-08T07:00:54.018Z,76.52
2018-12-08T07:03:22.686Z,75.10
2018-12-08T07:05:51.311Z,75.06
2018-12-08T07:08:20.018Z,75.60
2018-12-08T07:10:48.668Z,75.08
2018-12-08T07:13:17.398Z,75.06
2018-12-08T07:15:46.020Z,74.72
2018-12-08T07:18:14.700Z,74.82
2018-12-08T07:20:43.441Z,74.64
2018-12-08T07:23:12.107Z,74.29
2018-12-08T07:25:41.037Z,74.41
2018-12-08T07:28:09.655Z,74.68
2018-12-08T07:30:38.330Z,74.16
2018-12-08T07:33:07.062Z,73.22
2018-12-08T07:35:35.680Z,73.94
2018-12-08T07:38:04.360Z,73.04
2018-12-08T07:40:33.046Z,73.18
2018-12-08T07:43:01.658Z,72.99
2018-12-08T07:45:30.280Z,72.77
2018-12-08T07:47:58.877Z,72.05
2018-12-08T07:50:27.579Z,72.71
2018-12-08T07:52:56.784Z,72.50
2018-12-08T07:55:25.459Z,72.08
2018-12-08T07:57:54.107Z,71.52
2018-12-08T08:00:22.784Z,71.70
2018-12-08T08:02:51.510Z,71.77
2018-12-08T08:05:20.112Z,70.92
2018-12-08T08:07:48.783Z,71.12
2018-12-08T08:10:17.593Z,71.36
2018-12-08T08:12:46.225Z,69.11
2018-12-08T08:15:14.920Z,69.85
2018-12-08T08:17:43.596Z,69.10
2018-12-08T08:20:12.531Z,69.89
2018-12-08T08:22:41.120Z,69.83
2018-12-08T08:25:11.694Z,69.12
2018-12-08T08:27:40.323Z,68.52
2018-12-08T08:30:11.117Z,69.01
2018-12-08T08:32:39.822Z,68.72
2018-12-08T08:35:09.119Z,68.50
2018-12-08T08:37:37.716Z,69.52
2018-12-08T08:40:08.512Z,68.47
2018-12-08T08:42:37.224Z,68.85
2018-12-08T08:45:06.639Z,68.76
2018-12-08T08:47:35.271Z,68.36
2018-12-08T08:50:05.123Z,68.46
2018-12-08T08:52:33.954Z,68.59
2018-12-08T08:55:02.603Z,68.47
2018-12-08T08:57:31.384Z,68.01
2018-12-08T09:00:00.019Z,66.92
2018-12-08T09:02:28.779Z,66.67
2018-12-08T09:04:57.375Z,66.67
2018-12-08T09:07:26.125Z,66.59
2018-12-08T09:09:55.538Z,66.54
2018-12-08T09:12:24.394Z,65.47
2018-12-08T09:14:53.020Z,65.44
2018-12-08T09:17:21.648Z,64.74
2018-12-08T09:19:50.219Z,65.40
2018-12-08T09:22:18.896Z,64.85
2018-12-08T09:24:47.510Z,64.19
2018-12-08T09:27:16.162Z,64.32
2018-12-08T09:29:44.848Z,65.33
2018-12-08T09:32:13.540Z,65.14
2018-12-08T09:34:42.168Z,64.15
2018-12-08T09:37:10.795Z,64.81
2018-12-08T09:39:39.555Z,65.61
2018-12-08T09:42:08.227Z,64.60
2018-12-08T09:44:36.848Z,65.57
2018-12-08T09:47:05.553Z,65.10
2018-12-08T09:49:34.224Z,64.85
2018-12-08T09:52:02.850Z,64.91
2018-12-08T09:54:31.539Z,63.93
2018-12-08T09:57:00.159Z,64.60
2018-12-08T09:59:28.739Z,64.26
2018-12-08T10:01:57.405Z,64.62
2018-12-08T10:04:26.005Z,64.52
2018-12-08T10:06:54.822Z,64.62
2018-12-08T10:09:23.527Z,64.35
2018-12-08T10:11:52.396Z,63.82
2018-12-08T10:14:21.007Z,64.95
2018-12-08T10:16:49.643Z,65.05
2018-12-08T10:19:18.243Z,64.88
2018-12-08T10:21:46.868Z,65.60
2018-12-08T10:24:16.108Z,64.67
2018-12-08T10:26:44.744Z,64.92
2018-12-08T10:29:13.401Z,64.78
2018-12-08T10:31:42.055Z,64.83
2018-12-08T10:34:10.647Z,65.30
2018-12-08T10:36:39.411Z,65.01
2018-12-08T10:39:08.971Z,65.64
2018-12-08T10:41:37.822Z,65.55
2018-12-08T10:44:06.681Z,64.65
2018-12-08T10:46:35.296Z,65.73
2018-12-08T10:49:03.957Z,65.14
2018-12-08T10:51:32.650Z,65.47
2018-12-08T10:54:01.248Z,65.63
2018-12-08T10:56:29.875Z,66.10
2018-12-08T10:58:58.527Z,66.15
2018-12-08T11:02:30.114Z,65.41
2018-12-08T11:04:58.840Z,66.04
2018-12-08T11:07:27.548Z,65.88
2018-12-08T11:09:56.203Z,65.68
2018-12-08T11:12:24.821Z,66.13
2018-12-08T11:15:00.451Z,66.07
2018-12-08T11:17:25.858Z,67.42
2018-12-08T11:19:54.503Z,66.86
2018-12-08T11:22:23.117Z,66.94
2018-12-08T11:24:51.753Z,67.72
2018-12-08T11:27:26.691Z,67.45
2018-12-08T11:29:55.318Z,67.80
2018-12-08T11:32:24.053Z,68.33
2018-12-08T11:34:52.772Z,68.35
2018-12-08T11:37:21.547Z,69.66
2018-12-08T11:39:50.275Z,70.14
2018-12-08T11:42:18.915Z,71.08
2018-12-08T11:44:47.959Z,71.60
2018-12-08T11:47:16.665Z,72.36
2018-12-08T11:49:45.336Z,73.48
2018-12-08T11:52:13.939Z,73.82
2018-12-08T11:54:42.548Z,73.63
2018-12-08T11:57:11.716Z,73.63
2018-12-08T11:59:40.376Z,73.07
2018-12-08T12:02:16.319Z,73.88
2018-12-08T12:04:39.802Z,74.94
2018-12-08T12:07:08.471Z,74.99
2018-12-08T12:09:37.142Z,74.14
2018-12-08T12:12:05.818Z,73.80
2018-12-08T12:14:47.604Z,73.90
2018-12-08T12:17:16.549Z,72.39
2018-12-08T12:19:45.280Z,72.71
2018-12-08T12:22:14.045Z,72.22
2018-12-08T12:24:42.820Z,70.84
2018-12-08T12:27:11.469Z,69.95
2018-12-08T12:29:40.084Z,70.66
2018-12-08T12:32:08.691Z,71.03
2018-12-08T12:34:37.387Z,71.66
2018-12-08T12:37:06.021Z,71.52
2018-12-08T12:39:34.706Z,71.43
2018-12-08T12:42:04.483Z,72.21
2018-12-08T12:44:33.428Z,71.56
2018-12-08T12:47:02.111Z,70.01
2018-12-08T12:49:30.727Z,69.08
2018-12-08T12:51:59.356Z,70.16
2018-12-08T12:54:27.995Z,70.72
2018-12-08T12:56:56.638Z,70.44
2018-12-08T12:59:25.627Z,71.76
2018-12-08T13:01:54.523Z,72.56
2018-12-08T13:04:23.223Z,72.49
2018-12-08T13:06:51.939Z,73.79
2018-12-08T13:09:20.587Z,73.47
2018-12-08T13:11:49.856Z,74.09
2018-12-08T13:14:18.527Z,74.15
2018-12-08T13:16:47.138Z,72.74
2018-12-08T13:19:16.023Z,72.89
2018-12-08T13:21:44.661Z,73.81
2018-12-08T13:24:13.387Z,73.42
2018-12-08T13:26:42.043Z,75.02
2018-12-08T13:29:10.711Z,75.28
2018-12-08T13:31:39.365Z,77.10
2018-12-08T13:34:39.808Z,76.39
2018-12-08T13:37:08.569Z,75.93
2018-12-08T13:39:37.187Z,76.59
2018-12-08T13:42:05.801Z,76.80
2018-12-08T13:44:38.836Z,75.87
2018-12-08T13:47:07.635Z,76.68
2018-12-08T13:49:36.370Z,76.32
2018-12-08T13:52:05.032Z,75.45
2018-12-08T13:54:51.229Z,76.61
2018-12-08T13:57:19.967Z,76.72
2018-12-08T13:59:54.862Z,76.78
2018-12-08T14:02:23.746Z,76.59
2018-12-08T14:04:52.353Z,76.61
2018-12-08T14:07:21.399Z,77.57
2018-12-08T14:09:50.079Z,78.70
2018-12-08T14:12:18.699Z,78.27
2018-12-08T14:14:47.380Z,78.59
2018-12-08T14:17:16.033Z,78.34
2018-12-08T14:19:44.872Z,77.70
2018-12-08T14:22:13.594Z,78.16
2018-12-08T14:24:42.314Z,77.77
2018-12-08T14:27:11.310Z,78.60
2018-12-08T14:29:40.069Z,78.88
2018-12-08T14:32:09.031Z,80.18
2018-12-08T14:34:37.668Z,80.22
2018-12-08T14:37:06.365Z,80.69
2018-12-08T14:39:35.181Z,80.87
2018-12-08T14:42:03.928Z,80.06
2018-12-08T14:44:32.529Z,79.36
2018-12-08T14:47:01.349Z,79.85
2018-12-08T14:49:30.060Z,79.75
2018-12-08T14:51:58.748Z,79.66
2018-12-08T14:54:27.401Z,79.35
2018-12-08T14:56:56.059Z,78.38
2018-12-08T14:59:24.668Z,78.88
2018-12-08T15:01:53.408Z,78.94
2018-12-08T15:04:22.139Z,78.67
2018-12-08T15:06:50.793Z,79.53
2018-12-08T15:09:19.543Z,79.21
2018-12-08T15:11:48.151Z,79.53
2018-12-08T15:14:16.743Z,79.07
2018-12-08T15:16:45.400Z,79.20
2018-12-08T15:19:14.016Z,78.86
2018-12-08T15:21:43.283Z,78.86
2018-12-08T15:24:11.903Z,79.00
2018-12-08T15:26:40.528Z,79.25
2018-12-08T15:29:09.252Z,80.83
2018-12-08T15:31:37.889Z,81.95
2018-12-08T15:34:06.581Z,80.96
2018-12-08T15:36:35.259Z,81.51
2018-12-08T15:39:06.863Z,82.01
2018-12-08T15:41:35.681Z,82.08
2018-12-08T15:44:04.444Z,81.38
2018-12-08T15:46:33.092Z,81.76
2018-12-08T15:49:01.811Z,82.16
2018-12-08T15:51:30.708Z,82.14
2018-12-08T15:54:00.606Z,81.62
2018-12-08T15:56:29.241Z,82.09
2018-12-08T15:58:57.840Z,81.75
2018-12-08T16:01:26.608Z,81.18
2018-12-08T16:03:55.338Z,81.05
2018-12-08T16:06:24.176Z,82.62
2018-12-08T16:08:52.938Z,80.88
2018-12-08T16:11:21.601Z,80.76
2018-12-08T16:13:50.340Z,80.09
2018-12-08T16:16:19.071Z,79.66
2018-12-08T16:18:47.781Z,79.71
2018-12-08T16:21:16.412Z,79.43
2018-12-08T16:23:45.256Z,79.38
2018-12-08T16:26:13.936Z,79.61
2018-12-08T16:28:42.554Z,80.80
2018-12-08T16:31:11.187Z,80.21
2018-12-08T16:33:39.853Z,79.97
2018-12-08T16:36:08.469Z,79.68
2018-12-08T16:38:37.076Z,79.94
2018-12-08T16:41:05.782Z,79.36
2018-12-08T16:43:34.415Z,79.45
2018-12-08T16:46:03.279Z,78.91
2018-12-08T16:48:31.911Z,79.23
2018-12-08T16:51:00.589Z,78.95
2018-12-08T16:53:29.246Z,79.08
2018-12-08T16:55:57.908Z,78.59
2018-12-08T16:58:26.700Z,78.79
2018-12-08T17:00:55.585Z,78.37
2018-12-08T17:03:24.192Z,78.50
2018-12-08T17:05:52.914Z,77.66
2018-12-08T17:08:22.023Z,77.67
2018-12-08T17:10:50.634Z,77.85
2018-12-08T17:13:19.511Z,77.44
2018-12-08T17:15:48.113Z,76.74
2018-12-08T17:18:16.756Z,77.11
2018-12-08T17:20:45.367Z,76.47
2018-12-08T17:23:14.091Z,76.74
2018-12-08T17:25:42.794Z,76.62
2018-12-08T17:28:11.528Z,76.46
2018-12-08T17:30:40.151Z,76.13
2018-12-08T17:33:09.020Z,76.95
2018-12-08T17:35:37.761Z,77.02
2018-12-08T17:38:06.561Z,77.16
2018-12-08T17:40:35.228Z,77.00
2018-12-08T17:43:03.832Z,77.37
2018-12-08T17:45:32.516Z,77.92
2018-12-08T17:48:01.119Z,78.66
2018-12-08T17:50:29.707Z,78.55
2018-12-08T17:52:58.505Z,78.99
2018-12-08T17:55:27.156Z,78.85
2018-12-08T17:57:55.795Z,79.28
2018-12-08T18:00:24.586Z,79.10
2018-12-08T18:02:53.208Z,79.72
2018-12-08T18:05:22.075Z,80.10
2018-12-08T18:07:50.819Z,82.48
2018-12-08T18:10:19.439Z,82.34
2018-12-08T18:12:48.089Z,82.74
2018-12-08T18:15:16.834Z,83.44
2018-12-08T18:17:45.554Z,83.30
2018-12-08T18:20:14.479Z,82.13
2018-12-08T18:22:43.436Z,82.25
2018-12-08T18:25:12.119Z,82.13
2018-12-08T18:27:40.931Z,82.88
2018-12-08T18:30:09.693Z,82.64
2018-12-08T18:32:38.312Z,83.17
2018-12-08T18:35:07.089Z,84.03
2018-12-08T18:37:35.737Z,84.98
2018-12-08T18:40:04.799Z,85.14
2018-12-08T18:42:33.515Z,84.78
2018-12-08T18:45:02.241Z,85.23
2018-12-08T18:47:30.893Z,85.92
2018-12-08T18:49:59.487Z,85.51
2018-12-08T18:52:28.153Z,85.40
2018-12-08T18:54:56.861Z,84.71
2018-12-08T18:57:25.494Z,84.11
2018-12-08T18:59:54.124Z,84.94
2018-12-08T19:02:22.807Z,84.28
2018-12-08T19:04:51.496Z,83.51
2018-12-08T19:07:20.248Z,84.03
2018-12-08T19:09:48.863Z,83.49
2018-12-08T19:12:17.573Z,84.43
2018-12-08T19:14:46.266Z,84.55
2018-12-08T19:17:14.886Z,83.75
2018-12-08T19:19:43.668Z,84.39
2018-12-08T19:22:12.269Z,84.09
2018-12-08T19:24:40.985Z,84.04
2018-12-08T19:27:09.736Z,83.04
2018-12-08T19:29:38.431Z,83.19
2018-12-08T19:32:07.027Z,82.45
2018-12-08T19:34:35.800Z,82.73
2018-12-08T19:37:04.422Z,82.72
2018-12-08T19:39:33.059Z,82.23
2018-12-08T19:42:01.782Z,82.28
2018-12-08T19:44:30.412Z,82.43
2018-12-08T19:46:59.041Z,81.26
2018-12-08T19:49:27.804Z,81.58
2018-12-08T19:51:56.487Z,80.52
2018-12-08T19:54:25.145Z,81.59
2018-12-08T19:56:53.792Z,80.58
2018-12-08T19:59:22.407Z,79.30
2018-12-08T20:01:51.037Z,78.70
2018-12-08T20:04:19.697Z,79.64
2018-12-08T20:06:48.336Z,78.64
2018-12-08T20:09:16.972Z,78.18
2018-12-08T20:11:45.639Z,76.67
2018-12-08T20:14:14.275Z,76.85
2018-12-08T20:16:43.037Z,76.60
2018-12-08T20:19:11.794Z,76.52
2018-12-08T20:21:40.481Z,75.81
2018-12-08T20:24:09.581Z,75.61
2018-12-08T20:26:38.773Z,76.44
2018-12-08T20:29:07.503Z,76.66
2018-12-08T20:31:36.349Z,76.71
2018-12-08T20:34:05.137Z,75.47
2018-12-08T20:36:33.875Z,75.96
2018-12-08T20:39:02.717Z,75.93
2018-12-08T20:41:31.347Z,76.10
2018-12-08T20:44:00.111Z,76.29
2018-12-08T20:46:28.796Z,77.19
2018-12-08T20:48:57.416Z,78.03
2018-12-08T20:51:26.108Z,79.18
2018-12-08T20:53:54.717Z,78.46
2018-12-08T20:56:23.369Z,77.77
2018-12-08T20:58:52.033Z,78.09
2018-12-08T21:01:20.768Z,78.11
2018-12-08T21:03:49.481Z,77.64
2018-12-08T21:06:18.171Z,77.78
2018-12-08T21:08:46.823Z,77.86
2018-12-08T21:11:15.493Z,77.83
2018-12-08T21:13:44.123Z,77.54
2018-12-08T21:16:12.719Z,77.33
2018-12-08T21:18:41.432Z,77.47
2018-12-08T21:21:10.048Z,77.15
2018-12-08T21:23:39.066Z,77.31
2018-12-08T21:26:07.891Z,76.95
2018-12-08T21:28:36.648Z,78.13
2018-12-08T21:31:05.500Z,79.70
2018-12-08T21:33:34.449Z,78.77
2018-12-08T21:36:03.137Z,78.96
2018-12-08T21:38:31.843Z,79.07
2018-12-08T21:41:00.496Z,79.40
2018-12-08T21:43:29.197Z,79.90
2018-12-08T21:45:57.912Z,79.92
2018-12-08T21:48:26.578Z,79.29
2018-12-08T21:50:55.309Z,79.53
2018-12-08T21:53:23.955Z,79.13
2018-12-08T21:55:52.562Z,79.31
2018-12-08T21:58:21.205Z,79.72
2018-12-08T22:00:49.981Z,79.38
2018-12-08T22:03:18.772Z,78.73
2018-12-08T22:05:47.484Z,78.05
2018-12-08T22:08:16.107Z,77.87
2018-12-08T22:10:44.847Z,78.09
2018-12-08T22:13:13.517Z,78.68
2018-12-08T22:15:42.149Z,78.12
2018-12-08T22:18:10.803Z,78.61
2018-12-08T22:20:39.448Z,78.61
2018-12-08T22:23:08.059Z,78.47
2018-12-08T22:25:36.756Z,78.55
2018-12-08T22:28:05.378Z,78.37
2018-12-08T22:30:33.981Z,78.38
2018-12-08T22:33:02.630Z,78.81
2018-12-08T22:35:31.607Z,78.98
2018-12-08T22:38:00.355Z,79.71
2018-12-08T22:40:29.122Z,79.67
2018-12-08T22:42:57.769Z,80.18
2018-12-08T22:45:26.406Z,81.02
2018-12-08T22:47:55.043Z,81.29
2018-12-08T22:50:23.677Z,81.23
2018-12-08T22:52:52.304Z,80.48
2018-12-08T22:55:21.172Z,81.12
2018-12-08T22:57:49.888Z,81.44
2018-12-08T23:00:29.720Z,80.60
2018-12-08T23:02:58.523Z,80.55
2018-12-08T23:05:27.303Z,80.80
2018-12-08T23:07:55.924Z,80.84
2018-12-08T23:10:24.580Z,81.06
2018-12-08T23:12:53.276Z,81.28
2018-12-08T23:15:22.092Z,80.99
2018-12-08T23:17:50.853Z,80.44
2018-12-08T23:20:19.520Z,80.67
2018-12-08T23:22:48.117Z,80.65
2018-12-08T23:25:16.798Z,80.99
2018-12-08T23:27:45.819Z,80.90
2018-12-08T23:30:14.569Z,80.85
2018-12-08T23:32:43.249Z,81.74
2018-12-08T23:35:11.993Z,81.01
2018-12-08T23:37:40.756Z,81.09
2018-12-08T23:40:09.493Z,81.33
2018-12-08T23:42:38.376Z,81.04
2018-12-08T23:45:07.552Z,80.78
2018-12-08T23:47:36.240Z,80.54
2018-12-08T23:50:05.935Z,80.33
2018-12-08T23:52:34.656Z,80.63
2018-12-08T23:55:03.338Z,80.81
2018-12-08T23:57:31.988Z,82.00
